Decoded Metar for KBRO (BROWNSVILLE in TX, USA) (IATA:BRO) | Meteo·Mobile Aviation Weather
aviador You're here:

KBRO Decoded Metar

BROWNSVILLE in TX, USA
Report Time2018-11-17 01:53:00
UTC Time2018-11-17 02:25:58
Flight Rules vfr VFR
WindCalm
Visibility9999 m
Phenomena:N/A
Clouds:N/A
Expected CloudBase > 400 ft AGL from Temp-Dew spread
CeilingNone
Temp14°C (ISA -1)
Dew Point13°C (94% RH)
QNH1021 hPa
Density Alt-161 ft
Elevation23 ft
Report Wrong Elevation
Raw Report
KBRO 170153Z 00000KT 10SM CLR 14/13 A3014 RMK AO2 SLP205
T01440128=

Extra information for KBRO:More info

Metar Taf Metar & Taf Last 4 Metars F.Rules Stats Wind Profile Meteogram Temp Stats Airport Information Weather charts Add Link Nearby VenuesMetar ALERT Operation Metar Decoded Social comments

AIRNAV info for KBRO